createdAt,value
2023-04-20T00:00:29.999Z,1020.28
2023-04-20T00:00:57.949Z,1020.11
2023-04-20T00:01:28.939Z,1020.11
2023-04-20T00:01:59.838Z,1020.28
2023-04-20T00:02:32.311Z,1020.22
2023-04-20T00:03:04.970Z,1020.22
2023-04-20T00:03:34.195Z,1020.28
2023-04-20T00:04:04.338Z,1020.28
2023-04-20T00:04:35.658Z,1020.01
2023-04-20T00:05:05.714Z,1020.01
2023-04-20T00:05:36.603Z,1020.28
2023-04-20T00:06:07.995Z,1020.28
2023-04-20T00:06:38.650Z,1020.01
2023-04-20T00:07:10.064Z,1020.01
2023-04-20T00:07:42.081Z,1020.11
2023-04-20T00:08:14.360Z,1020.11
2023-04-20T00:08:55.743Z,1020.11
2023-04-20T00:09:22.984Z,1020.11
2023-04-20T00:09:45.232Z,1020.01
2023-04-20T00:10:19.018Z,1020.01
2023-04-20T00:10:48.972Z,1020.01
2023-04-20T00:11:19.929Z,1020.01
2023-04-20T00:11:50.058Z,1020.11
2023-04-20T00:12:21.848Z,1020.11
2023-04-20T00:12:54.626Z,1020.11
2023-04-20T00:13:24.458Z,1020.11
2023-04-20T00:13:55.874Z,1020.11
2023-04-20T00:14:25.049Z,1020.11
2023-04-20T00:14:56.404Z,1020.22
2023-04-20T00:15:32.214Z,1020.22
2023-04-20T00:16:04.212Z,1020.01
2023-04-20T00:16:28.257Z,1020.01
2023-04-20T00:16:59.952Z,1020.11
2023-04-20T00:17:30.516Z,1020.11
2023-04-20T00:18:04.462Z,1019.91
2023-04-20T00:18:34.471Z,1019.81
2023-04-20T00:19:05.835Z,1019.81
2023-04-20T00:19:34.902Z,1019.81
2023-04-20T00:20:06.184Z,1019.81
2023-04-20T00:20:36.784Z,1020.01
2023-04-20T00:21:07.413Z,1020.01
2023-04-20T00:21:40.276Z,1019.91
2023-04-20T00:22:09.238Z,1019.91
2023-04-20T00:22:40.314Z,1020.01
2023-04-20T00:23:12.321Z,1020.01
2023-04-20T00:23:44.507Z,1019.91
2023-04-20T00:24:14.521Z,1019.91
2023-04-20T00:24:44.783Z,1019.91
2023-04-20T00:25:15.620Z,1019.91
2023-04-20T00:25:46.183Z,1020.01
2023-04-20T00:26:17.274Z,1020.01
2023-04-20T00:26:48.342Z,1019.91
2023-04-20T00:27:19.337Z,1019.91
2023-04-20T00:27:50.703Z,1020.11
2023-04-20T00:28:22.407Z,1020.11
2023-04-20T00:28:54.760Z,1019.81
2023-04-20T00:29:25.759Z,1019.81
2023-04-20T00:29:55.373Z,1020.01
2023-04-20T00:30:27.126Z,1020.01
2023-04-20T00:30:56.808Z,1020.01
2023-04-20T00:31:28.008Z,1020.01
2023-04-20T00:31:58.305Z,1019.81
2023-04-20T00:32:29.743Z,1019.81
2023-04-20T00:33:00.164Z,1019.71
2023-04-20T00:33:31.482Z,1019.81
2023-04-20T00:34:03.890Z,1019.81
2023-04-20T00:34:34.982Z,1019.91
2023-04-20T00:35:05.754Z,1019.91
2023-04-20T00:35:36.542Z,1019.81
2023-04-20T00:36:06.811Z,1019.81
2023-04-20T00:36:37.104Z,1019.81
2023-04-20T00:37:08.051Z,1019.81
2023-04-20T00:37:38.902Z,1019.91
2023-04-20T00:38:09.982Z,1019.91
2023-04-20T00:38:40.850Z,1019.91
2023-04-20T00:39:13.811Z,1019.91
2023-04-20T00:39:44.748Z,1019.71
2023-04-20T00:40:15.808Z,1019.71
2023-04-20T00:40:46.316Z,1019.91
2023-04-20T00:41:16.018Z,1019.91
2023-04-20T00:41:47.085Z,1019.91
2023-04-20T00:42:18.419Z,1019.91
2023-04-20T00:42:49.309Z,1019.91
2023-04-20T00:43:19.795Z,1019.91
2023-04-20T00:43:50.871Z,1019.81
2023-04-20T00:44:25.065Z,1019.81
2023-04-20T00:44:54.712Z,1019.81
2023-04-20T00:45:26.480Z,1019.81
2023-04-20T00:45:56.016Z,1019.91
2023-04-20T00:46:26.571Z,1019.91
2023-04-20T00:46:57.073Z,1019.91
2023-04-20T00:47:27.864Z,1019.91
2023-04-20T00:47:59.044Z,1020.01
2023-04-20T00:48:29.812Z,1020.01
2023-04-20T00:49:00.801Z,1019.81
2023-04-20T00:49:33.956Z,1020.01
2023-04-20T00:50:05.842Z,1020.01
2023-04-20T00:50:35.489Z,1019.81
2023-04-20T00:51:06.322Z,1019.81
2023-04-20T00:51:36.336Z,1019.81
2023-04-20T00:52:06.782Z,1019.81
2023-04-20T00:52:37.745Z,1019.71
2023-04-20T00:53:12.024Z,1019.71
2023-04-20T00:53:40.171Z,1019.81
2023-04-20T00:54:10.931Z,1019.81
2023-04-20T00:54:41.788Z,1019.81
2023-04-20T00:55:15.270Z,1019.81
2023-04-20T00:55:45.991Z,1019.71
2023-04-20T00:56:16.462Z,1019.71
2023-04-20T00:56:46.511Z,1019.91
2023-04-20T00:57:17.587Z,1019.91
2023-04-20T00:57:47.897Z,1019.71
2023-04-20T00:58:19.769Z,1019.71
2023-04-20T00:58:49.834Z,1019.61
2023-04-20T00:59:21.064Z,1019.61
2023-04-20T00:59:52.119Z,1019.50
2023-04-20T01:00:26.077Z,1019.50
2023-04-20T01:00:57.085Z,1019.61
2023-04-20T01:01:26.710Z,1019.61
2023-04-20T01:01:58.299Z,1019.71
2023-04-20T01:02:27.443Z,1019.71
2023-04-20T01:02:58.347Z,1019.71
2023-04-20T01:03:29.370Z,1019.71
2023-04-20T01:04:00.644Z,1019.61
2023-04-20T01:05:02.459Z,1019.71
2023-04-20T01:05:34.593Z,1019.50
2023-04-20T01:06:06.368Z,1019.50
2023-04-20T01:06:36.695Z,1019.61
2023-04-20T01:07:06.548Z,1019.61
2023-04-20T01:07:38.062Z,1019.61
2023-04-20T01:08:08.107Z,1019.61
2023-04-20T01:08:39.174Z,1019.71
2023-04-20T01:09:10.498Z,1019.71
2023-04-20T01:09:40.833Z,1019.61
2023-04-20T01:10:12.773Z,1019.61
2023-04-20T01:10:43.493Z,1019.50
2023-04-20T01:11:16.134Z,1019.50
2023-04-20T01:11:46.050Z,1019.50
2023-04-20T01:12:16.691Z,1019.50
2023-04-20T01:12:47.446Z,1019.61
2023-04-20T01:13:18.139Z,1019.61
2023-04-20T01:13:49.725Z,1019.50
2023-04-20T01:14:50.904Z,1019.50
2023-04-20T01:15:22.623Z,1019.50
2023-04-20T01:15:56.559Z,1019.61
2023-04-20T01:16:26.526Z,1019.61
2023-04-20T01:16:57.350Z,1019.50
2023-04-20T01:17:26.853Z,1019.50
2023-04-20T01:17:57.658Z,1019.50
2023-04-20T01:18:28.853Z,1019.50
2023-04-20T01:18:59.365Z,1019.50
2023-04-20T01:19:30.006Z,1019.50
2023-04-20T01:20:01.102Z,1019.50
2023-04-20T01:20:32.692Z,1019.50
2023-04-20T01:21:03.276Z,1019.50
2023-04-20T01:21:35.725Z,1019.50
2023-04-20T01:22:07.087Z,1019.50
2023-04-20T01:22:37.028Z,1019.61
2023-04-20T01:23:08.461Z,1019.61
2023-04-20T01:23:38.468Z,1019.61
2023-04-20T01:24:08.864Z,1019.61
2023-04-20T01:24:40.325Z,1019.50
2023-04-20T01:25:11.233Z,1019.50
2023-04-20T01:25:41.960Z,1019.61
2023-04-20T01:26:12.878Z,1019.61
2023-04-20T01:26:45.663Z,1019.20
2023-04-20T01:27:15.921Z,1019.20
2023-04-20T01:27:46.696Z,1019.40
2023-04-20T01:28:17.405Z,1019.40
2023-04-20T01:28:47.938Z,1019.50
2023-04-20T01:29:19.584Z,1019.50
2023-04-20T01:29:50.963Z,1019.30
2023-04-20T01:30:21.876Z,1019.30
2023-04-20T01:30:51.948Z,1019.40
2023-04-20T01:31:23.774Z,1019.40
2023-04-20T01:31:56.137Z,1019.40
2023-04-20T01:32:28.315Z,1019.40
2023-04-20T01:32:57.578Z,1019.40
2023-04-20T01:33:27.921Z,1019.40
2023-04-20T01:34:17.239Z,1019.30
2023-04-20T01:34:29.251Z,1019.30
2023-04-20T01:35:06.041Z,1019.50
2023-04-20T01:35:31.094Z,1019.50
2023-04-20T01:36:02.773Z,1019.50
2023-04-20T01:36:32.849Z,1019.40
2023-04-20T01:37:05.023Z,1019.40
2023-04-20T01:37:37.528Z,1019.30
2023-04-20T01:38:07.162Z,1019.30
2023-04-20T01:38:38.072Z,1019.20
2023-04-20T01:39:08.485Z,1019.20
2023-04-20T01:40:11.484Z,1019.20
2023-04-20T01:40:41.241Z,1019.40
2023-04-20T01:41:11.969Z,1019.40
2023-04-20T01:41:43.270Z,1019.40
2023-04-20T01:42:15.298Z,1019.40
2023-04-20T01:42:47.037Z,1019.30
2023-04-20T01:43:17.499Z,1019.30
2023-04-20T01:43:48.006Z,1019.30
2023-04-20T01:44:19.018Z,1019.30
2023-04-20T01:44:49.180Z,1019.20
2023-04-20T01:45:21.740Z,1019.20
2023-04-20T01:45:50.928Z,1019.30
2023-04-20T01:46:22.406Z,1019.30
2023-04-20T01:46:53.159Z,1019.10
2023-04-20T01:47:27.055Z,1019.10
2023-04-20T01:47:57.320Z,1019.20
2023-04-20T01:48:28.527Z,1019.20
2023-04-20T01:48:58.926Z,1019.20
2023-04-20T01:49:28.605Z,1019.20
2023-04-20T01:49:59.300Z,1019.30
2023-04-20T01:51:01.533Z,1019.30
2023-04-20T01:51:31.797Z,1019.10
2023-04-20T01:52:03.311Z,1019.10
2023-04-20T01:52:35.491Z,1019.30
2023-04-20T01:53:07.474Z,1019.30
2023-04-20T01:53:38.184Z,1019.20
2023-04-20T01:54:08.561Z,1019.20
2023-04-20T01:54:38.891Z,1019.30
2023-04-20T01:55:09.429Z,1019.30
2023-04-20T01:55:40.120Z,1019.30
2023-04-20T01:56:11.572Z,1019.30
2023-04-20T01:56:42.187Z,1019.20
2023-04-20T01:57:13.109Z,1019.20
2023-04-20T01:57:44.909Z,1019.30
2023-04-20T01:58:17.857Z,1019.30
2023-04-20T01:58:56.103Z,1019.40
2023-04-20T01:59:18.717Z,1019.40
2023-04-20T01:59:48.734Z,1019.00
2023-04-20T02:00:21.172Z,1019.00
2023-04-20T02:00:50.539Z,1019.20
2023-04-20T02:01:21.657Z,1019.20
2023-04-20T02:01:52.306Z,1019.20
2023-04-20T02:02:23.395Z,1019.20
2023-04-20T02:02:54.422Z,1019.00
2023-04-20T02:03:27.556Z,1019.00
2023-04-20T02:03:58.086Z,1019.10
2023-04-20T02:04:28.582Z,1019.10
2023-04-20T02:04:58.958Z,1019.20
2023-04-20T02:05:30.168Z,1019.20
2023-04-20T02:06:00.165Z,1019.10
2023-04-20T02:06:31.473Z,1019.20
2023-04-20T02:07:02.468Z,1019.20
2023-04-20T02:07:33.616Z,1019.20
2023-04-20T02:08:06.357Z,1019.20
2023-04-20T02:08:36.856Z,1019.20
2023-04-20T02:09:08.579Z,1019.20
2023-04-20T02:09:39.213Z,1019.20
2023-04-20T02:10:09.791Z,1019.20
2023-04-20T02:10:39.899Z,1019.30
2023-04-20T02:11:11.044Z,1019.30
2023-04-20T02:11:41.399Z,1019.30
2023-04-20T02:12:29.773Z,1019.30
2023-04-20T02:12:42.903Z,1019.10
2023-04-20T02:13:15.985Z,1019.10
2023-04-20T02:13:47.450Z,1019.20
2023-04-20T02:14:18.880Z,1019.20
2023-04-20T02:14:48.347Z,1019.20
2023-04-20T02:15:19.981Z,1019.20
2023-04-20T02:15:49.657Z,1018.90
2023-04-20T02:16:20.552Z,1018.90
2023-04-20T02:16:51.407Z,1018.90
2023-04-20T02:17:22.611Z,1018.90
2023-04-20T02:17:54.033Z,1018.90
2023-04-20T02:18:26.147Z,1018.90
2023-04-20T02:18:57.422Z,1019.20
2023-04-20T02:19:28.472Z,1019.20
2023-04-20T02:20:18.029Z,1019.10
2023-04-20T02:20:28.887Z,1019.10
2023-04-20T02:21:00.376Z,1019.10
2023-04-20T02:21:30.760Z,1019.10
2023-04-20T02:22:01.445Z,1019.20
2023-04-20T02:22:31.960Z,1019.30
2023-04-20T02:23:03.612Z,1019.30
2023-04-20T02:23:34.493Z,1019.10
2023-04-20T02:24:08.204Z,1019.10
2023-04-20T02:24:38.126Z,1019.00
2023-04-20T02:25:09.362Z,1019.00
2023-04-20T02:25:38.830Z,1019.20
2023-04-20T02:26:09.517Z,1019.20
2023-04-20T02:26:40.447Z,1019.20
2023-04-20T02:27:11.345Z,1019.20
2023-04-20T02:27:42.471Z,1019.00
2023-04-20T02:28:13.662Z,1019.00
2023-04-20T02:28:44.324Z,1019.10
2023-04-20T02:29:17.558Z,1019.10
2023-04-20T02:29:48.763Z,1018.90
2023-04-20T02:30:20.779Z,1018.90
2023-04-20T02:31:08.156Z,1019.20
2023-04-20T02:31:20.103Z,1019.20
2023-04-20T02:31:50.547Z,1019.10
2023-04-20T02:32:22.090Z,1019.10
2023-04-20T02:32:53.251Z,1018.90
2023-04-20T02:33:23.945Z,1018.90
2023-04-20T02:33:54.523Z,1019.20
2023-04-20T02:34:27.313Z,1019.20
2023-04-20T02:34:57.848Z,1019.10
2023-04-20T02:35:29.626Z,1019.10
2023-04-20T02:36:00.399Z,1019.20
2023-04-20T02:36:29.714Z,1019.20
2023-04-20T02:37:00.647Z,1019.20
2023-04-20T02:37:31.539Z,1019.20
2023-04-20T02:38:02.032Z,1019.20
2023-04-20T02:38:33.503Z,1019.20
2023-04-20T02:39:04.420Z,1019.20
2023-04-20T02:39:37.257Z,1019.10
2023-04-20T02:40:08.837Z,1019.10
2023-04-20T02:40:38.889Z,1019.20
2023-04-20T02:41:09.811Z,1019.20
2023-04-20T02:41:39.869Z,1019.10
2023-04-20T02:42:11.171Z,1019.10
2023-04-20T02:42:41.396Z,1019.30
2023-04-20T02:43:12.671Z,1019.30
2023-04-20T02:44:00.699Z,1019.30
2023-04-20T02:44:14.381Z,1019.30
2023-04-20T02:44:46.108Z,1019.10
2023-04-20T02:45:19.074Z,1019.10
2023-04-20T02:45:48.858Z,1018.90
2023-04-20T02:46:19.697Z,1018.90
2023-04-20T02:46:50.053Z,1019.10
2023-04-20T02:47:20.581Z,1019.10
2023-04-20T02:47:51.474Z,1019.20
2023-04-20T02:48:23.232Z,1019.20
2023-04-20T02:48:54.170Z,1019.00
2023-04-20T02:49:24.762Z,1019.00
2023-04-20T02:49:57.103Z,1019.10
2023-04-20T02:50:29.527Z,1019.10
2023-04-20T02:50:59.333Z,1019.30
2023-04-20T02:51:30.098Z,1019.30
2023-04-20T02:52:00.321Z,1019.00
2023-04-20T02:52:30.856Z,1019.00
2023-04-20T02:53:33.156Z,1019.10
2023-04-20T02:54:03.081Z,1019.10
2023-04-20T02:54:34.045Z,1019.00
2023-04-20T02:55:08.382Z,1019.00
2023-04-20T02:55:38.365Z,1019.20
2023-04-20T02:56:09.777Z,1019.20
2023-04-20T02:56:39.536Z,1019.00
2023-04-20T02:57:11.525Z,1019.00
2023-04-20T02:57:40.940Z,1019.10
2023-04-20T02:58:11.895Z,1019.10
2023-04-20T02:58:42.342Z,1019.00
2023-04-20T02:59:13.760Z,1019.00
2023-04-20T02:59:45.982Z,1019.20
2023-04-20T03:00:15.999Z,1019.20
2023-04-20T03:00:46.049Z,1019.00
2023-04-20T03:01:17.324Z,1019.00
2023-04-20T03:01:50.219Z,1019.10
2023-04-20T03:02:20.164Z,1019.10
2023-04-20T03:02:51.214Z,1019.10
2023-04-20T03:03:22.046Z,1019.10
2023-04-20T03:03:53.772Z,1019.00
2023-04-20T03:04:24.113Z,1019.00
2023-04-20T03:05:27.024Z,1019.00
2023-04-20T03:05:58.761Z,1019.00
2023-04-20T03:06:29.600Z,1019.00
2023-04-20T03:06:59.799Z,1019.00
2023-04-20T03:07:30.130Z,1019.00
2023-04-20T03:08:00.936Z,1019.10
2023-04-20T03:08:31.899Z,1019.00
2023-04-20T03:09:03.375Z,1019.00
2023-04-20T03:09:33.707Z,1019.00
2023-04-20T03:10:04.793Z,1019.00
2023-04-20T03:10:35.548Z,1019.00
2023-04-20T03:11:07.842Z,1019.00
2023-04-20T03:11:39.267Z,1019.00
2023-04-20T03:12:09.438Z,1019.00
2023-04-20T03:12:40.761Z,1019.00
2023-04-20T03:13:10.771Z,1019.00
2023-04-20T03:13:42.333Z,1019.10
2023-04-20T03:14:12.551Z,1019.10
2023-04-20T03:14:43.317Z,1019.10
2023-04-20T03:15:15.267Z,1019.10
2023-04-20T03:15:45.355Z,1019.10
2023-04-20T03:16:18.131Z,1019.10
2023-04-20T03:16:49.467Z,1019.20
2023-04-20T03:17:20.161Z,1019.20
2023-04-20T03:17:50.606Z,1019.00
2023-04-20T03:18:21.035Z,1019.00
2023-04-20T03:18:52.094Z,1019.00
2023-04-20T03:19:22.648Z,1019.00
2023-04-20T03:19:53.406Z,1019.10
2023-04-20T03:20:25.194Z,1019.10
2023-04-20T03:20:55.721Z,1019.00
2023-04-20T03:21:27.858Z,1019.00
2023-04-20T03:22:00.064Z,1018.90
2023-04-20T03:22:30.004Z,1018.90
2023-04-20T03:23:00.967Z,1019.00
2023-04-20T03:23:31.212Z,1019.10
2023-04-20T03:24:02.030Z,1019.10
2023-04-20T03:24:33.145Z,1019.10
2023-04-20T03:25:04.592Z,1019.10
2023-04-20T03:25:35.159Z,1019.20
2023-04-20T03:26:05.590Z,1019.20
2023-04-20T03:26:36.734Z,1019.10
2023-04-20T03:27:10.153Z,1019.10
2023-04-20T03:27:40.655Z,1019.30
2023-04-20T03:28:11.159Z,1019.30
2023-04-20T03:28:41.577Z,1019.00
2023-04-20T03:29:12.935Z,1019.00
2023-04-20T03:29:43.812Z,1019.30
2023-04-20T03:30:15.379Z,1019.30
2023-04-20T03:30:45.490Z,1019.20
2023-04-20T03:31:15.561Z,1019.20
2023-04-20T03:31:49.354Z,1019.00
2023-04-20T03:32:19.808Z,1019.00
2023-04-20T03:33:05.961Z,1019.00
2023-04-20T03:33:21.181Z,1019.00
2023-04-20T03:33:51.310Z,1019.20
2023-04-20T03:34:22.184Z,1019.20
2023-04-20T03:34:54.282Z,1019.10
2023-04-20T03:35:23.495Z,1019.10
2023-04-20T03:35:55.430Z,1019.10
2023-04-20T03:36:25.687Z,1019.10
2023-04-20T03:36:58.169Z,1019.20
2023-04-20T03:37:29.662Z,1019.20
2023-04-20T03:38:10.738Z,1019.10
2023-04-20T03:38:30.922Z,1019.10
2023-04-20T03:39:02.121Z,1019.00
2023-04-20T03:39:32.695Z,1019.10
2023-04-20T03:40:03.086Z,1019.10
2023-04-20T03:40:40.250Z,1019.00
2023-04-20T03:41:04.624Z,1019.00
2023-04-20T03:41:35.433Z,1018.90
2023-04-20T03:42:23.673Z,1018.90
2023-04-20T03:42:39.538Z,1019.00
2023-04-20T03:43:11.041Z,1019.00
2023-04-20T03:43:40.632Z,1019.10
2023-04-20T03:44:11.588Z,1019.10
2023-04-20T03:44:42.093Z,1019.00
2023-04-20T03:45:13.825Z,1019.00
2023-04-20T03:45:44.054Z,1019.10
2023-04-20T03:46:32.575Z,1019.20
2023-04-20T03:47:02.932Z,1019.20
2023-04-20T03:47:17.341Z,1019.20
2023-04-20T03:47:50.211Z,1019.20
2023-04-20T03:48:18.234Z,1019.20
2023-04-20T03:48:51.224Z,1019.20
2023-04-20T03:49:22.109Z,1019.20
2023-04-20T03:49:52.578Z,1019.10
2023-04-20T03:50:23.579Z,1019.10
2023-04-20T03:51:11.703Z,1019.10
2023-04-20T03:51:24.357Z,1019.10
2023-04-20T03:51:55.521Z,1019.10
2023-04-20T03:52:26.830Z,1019.10
2023-04-20T03:52:59.028Z,1019.10
2023-04-20T03:53:30.167Z,1019.10
2023-04-20T03:54:01.059Z,1019.00
2023-04-20T03:54:32.034Z,1019.00
2023-04-20T03:55:02.075Z,1019.00
2023-04-20T03:55:32.841Z,1019.10
2023-04-20T03:56:03.284Z,1019.10
2023-04-20T03:56:34.665Z,1019.10
2023-04-20T03:57:07.226Z,1019.10
2023-04-20T03:57:36.503Z,1019.00
2023-04-20T03:58:09.975Z,1019.00
2023-04-20T03:58:40.506Z,1019.00
2023-04-20T03:59:12.262Z,1019.00
2023-04-20T04:00:01.188Z,1019.20
2023-04-20T04:00:12.547Z,1019.20
2023-04-20T04:01:13.870Z,1019.00
2023-04-20T04:01:46.273Z,1019.10
2023-04-20T04:02:16.373Z,1019.10
2023-04-20T04:02:46.840Z,1019.20
2023-04-20T04:03:18.834Z,1019.20
2023-04-20T04:03:57.329Z,1019.00
2023-04-20T04:04:20.141Z,1019.00
2023-04-20T04:04:52.374Z,1019.10
2023-04-20T04:05:23.825Z,1019.10
2023-04-20T04:05:55.604Z,1019.00
2023-04-20T04:06:24.885Z,1019.00
2023-04-20T04:07:02.190Z,1019.10
2023-04-20T04:07:26.075Z,1019.10
2023-04-20T04:07:57.106Z,1019.10
2023-04-20T04:08:45.621Z,1019.10
2023-04-20T04:08:58.776Z,1019.10
2023-04-20T04:09:40.134Z,1019.20
2023-04-20T04:10:02.045Z,1019.20
2023-04-20T04:10:33.540Z,1019.00
2023-04-20T04:11:04.997Z,1019.00
2023-04-20T04:12:08.194Z,1019.10
2023-04-20T04:12:36.456Z,1019.10
2023-04-20T04:13:07.811Z,1019.10
2023-04-20T04:13:56.227Z,1019.20
2023-04-20T04:14:29.430Z,1019.20
2023-04-20T04:14:41.038Z,1019.20
2023-04-20T04:15:44.179Z,1019.20
2023-04-20T04:16:14.056Z,1019.20
2023-04-20T04:16:50.717Z,1018.90
2023-04-20T04:17:15.474Z,1018.90
2023-04-20T04:17:47.001Z,1019.10
2023-04-20T04:18:17.227Z,1019.10
2023-04-20T04:18:48.083Z,1019.10
2023-04-20T04:19:21.718Z,1019.10
2023-04-20T04:19:53.329Z,1019.30
2023-04-20T04:20:33.463Z,1019.30
2023-04-20T04:20:53.223Z,1019.00
2023-04-20T04:21:28.060Z,1019.00
2023-04-20T04:21:54.862Z,1019.10
2023-04-20T04:22:30.607Z,1019.10
2023-04-20T04:22:57.832Z,1019.20
2023-04-20T04:23:26.629Z,1019.20
2023-04-20T04:23:58.140Z,1019.10
2023-04-20T04:24:29.120Z,1019.10
2023-04-20T04:25:02.950Z,1019.10
2023-04-20T04:25:33.511Z,1019.10
2023-04-20T04:26:04.018Z,1019.10
2023-04-20T04:26:36.117Z,1019.10
2023-04-20T04:27:05.682Z,1019.10
2023-04-20T04:27:36.916Z,1019.10
2023-04-20T04:28:07.049Z,1019.10
2023-04-20T04:28:48.017Z,1019.20
2023-04-20T04:29:11.536Z,1019.20
2023-04-20T04:29:46.642Z,1019.00
2023-04-20T04:30:21.445Z,1019.00
2023-04-20T04:30:57.257Z,1019.00
2023-04-20T04:31:13.747Z,1019.00
2023-04-20T04:31:43.760Z,1019.10
2023-04-20T04:32:31.190Z,1019.10
2023-04-20T04:32:51.507Z,1019.10
2023-04-20T04:33:17.807Z,1019.10
2023-04-20T04:33:48.460Z,1019.10
2023-04-20T04:34:19.268Z,1019.10
2023-04-20T04:34:54.620Z,1019.10
2023-04-20T04:35:21.043Z,1019.10
2023-04-20T04:36:00.955Z,1019.10
2023-04-20T04:36:31.049Z,1019.10
2023-04-20T04:36:59.317Z,1019.10
2023-04-20T04:37:25.453Z,1019.10
2023-04-20T04:37:55.489Z,1019.10
2023-04-20T04:38:28.555Z,1019.10
2023-04-20T04:39:01.143Z,1019.10
2023-04-20T04:39:33.368Z,1019.10
2023-04-20T04:40:51.162Z,1019.30
2023-04-20T04:41:05.660Z,1019.10
2023-04-20T04:41:38.911Z,1019.30
2023-04-20T04:42:09.227Z,1019.30
2023-04-20T04:42:49.073Z,1019.20
2023-04-20T04:43:10.625Z,1019.20
2023-04-20T04:43:36.640Z,1019.20
2023-04-20T04:44:06.985Z,1019.20
2023-04-20T04:44:40.026Z,1019.10
2023-04-20T04:45:13.748Z,1019.10
2023-04-20T04:45:41.889Z,1019.20
2023-04-20T04:46:13.938Z,1019.20
2023-04-20T04:46:44.333Z,1019.30
2023-04-20T04:47:21.346Z,1019.30
2023-04-20T04:47:43.996Z,1019.20
2023-04-20T04:48:15.903Z,1019.20
2023-04-20T04:48:47.294Z,1019.20
2023-04-20T04:49:17.798Z,1019.20
2023-04-20T04:49:48.850Z,1019.30
2023-04-20T04:50:20.068Z,1019.30
2023-04-20T04:50:50.354Z,1019.40
2023-04-20T04:51:21.821Z,1019.40
2023-04-20T04:51:52.913Z,1019.20
2023-04-20T04:52:23.236Z,1019.20
2023-04-20T04:52:53.753Z,1019.30
2023-04-20T04:53:27.255Z,1019.30
2023-04-20T04:53:56.704Z,1019.30
2023-04-20T04:54:26.890Z,1019.30
2023-04-20T04:55:00.227Z,1019.10
2023-04-20T04:55:29.895Z,1019.10
2023-04-20T04:56:02.912Z,1019.20
2023-04-20T04:56:33.141Z,1019.30
2023-04-20T04:57:03.154Z,1019.30
2023-04-20T04:57:34.052Z,1019.10
2023-04-20T04:58:34.745Z,1019.20
2023-04-20T04:59:06.082Z,1019.20
2023-04-20T04:59:37.043Z,1019.20
2023-04-20T05:02:31.519Z,1019.20
2023-04-20T05:02:42.738Z,1019.20
2023-04-20T05:03:13.924Z,1019.20
2023-04-20T05:04:20.858Z,1019.30
2023-04-20T05:04:52.795Z,1019.20
2023-04-20T05:05:35.594Z,1019.20
2023-04-20T05:06:00.043Z,1019.40
2023-04-20T05:06:42.577Z,1019.40
2023-04-20T05:17:21.740Z,1019.20
2023-04-20T05:17:42.371Z,1019.30
2023-04-20T05:18:13.079Z,1019.30
2023-04-20T05:18:43.525Z,1019.50
2023-04-20T05:19:15.175Z,1019.50
2023-04-20T05:19:46.145Z,1019.40
2023-04-20T05:20:31.774Z,1019.40
2023-04-20T05:20:49.420Z,1019.40
2023-04-20T05:21:26.198Z,1019.40
2023-04-20T05:21:57.360Z,1019.50
2023-04-20T05:22:21.170Z,1019.50
2023-04-20T05:22:54.169Z,1019.30
2023-04-20T05:23:23.523Z,1019.30
2023-04-20T05:23:54.353Z,1019.61
2023-04-20T05:24:31.095Z,1019.61
2023-04-20T05:25:33.224Z,1019.61
2023-04-20T05:26:00.854Z,1019.40
2023-04-20T05:26:30.441Z,1019.40
2023-04-20T05:27:01.641Z,1019.40
2023-04-20T05:27:40.566Z,1019.40
2023-04-20T05:28:03.495Z,1019.40
2023-04-20T05:28:32.826Z,1019.30
2023-04-20T05:29:04.068Z,1019.30
2023-04-20T05:29:35.084Z,1019.50
2023-04-20T05:30:27.254Z,1019.50
2023-04-20T05:31:13.068Z,1019.61
2023-04-20T05:31:40.460Z,1019.40
2023-04-20T05:32:20.120Z,1019.40
2023-04-20T05:32:44.188Z,1019.50
2023-04-20T05:33:17.592Z,1019.50
2023-04-20T05:34:18.685Z,1019.30
2023-04-20T05:34:45.148Z,1019.50
2023-04-20T05:35:59.732Z,1019.50
2023-04-20T05:37:12.053Z,1019.40
2023-04-20T05:37:21.881Z,1019.40
2023-04-20T05:37:51.685Z,1019.30
2023-04-20T05:38:22.944Z,1019.30
2023-04-20T05:38:53.529Z,1019.61
2023-04-20T05:39:24.321Z,1019.61
2023-04-20T05:39:55.754Z,1019.40
2023-04-20T05:40:26.705Z,1019.40
2023-04-20T05:40:58.954Z,1019.71
2023-04-20T05:41:30.404Z,1019.71
2023-04-20T05:42:01.274Z,1019.71
2023-04-20T05:42:31.664Z,1019.71
2023-04-20T05:43:02.494Z,1019.71
2023-04-20T05:43:32.883Z,1019.40
2023-04-20T05:44:03.353Z,1019.40
2023-04-20T05:44:34.974Z,1019.40
2023-04-20T05:45:07.496Z,1019.40
2023-04-20T05:45:36.946Z,1019.30
2023-04-20T05:46:07.982Z,1019.30
2023-04-20T05:46:41.548Z,1019.71
2023-04-20T05:47:11.173Z,1019.71
2023-04-20T05:47:41.595Z,1019.50
2023-04-20T05:48:12.643Z,1019.50
2023-04-20T05:48:44.135Z,1019.61
2023-04-20T05:49:14.012Z,1019.61
2023-04-20T05:49:44.062Z,1019.50
2023-04-20T05:50:15.989Z,1019.50
2023-04-20T05:50:45.920Z,1019.50
2023-04-20T05:51:17.610Z,1019.50
2023-04-20T05:51:49.856Z,1019.71
2023-04-20T05:52:21.875Z,1019.71
2023-04-20T05:52:52.096Z,1019.50
2023-04-20T05:53:22.337Z,1019.50
2023-04-20T05:53:52.523Z,1019.61
2023-04-20T05:54:23.653Z,1019.61
2023-04-20T05:54:54.029Z,1019.81
2023-04-20T05:55:25.734Z,1019.81
2023-04-20T05:55:55.991Z,1019.71
2023-04-20T05:56:28.492Z,1019.71
2023-04-20T05:57:00.522Z,1019.71
2023-04-20T05:57:31.350Z,1019.71
2023-04-20T05:58:02.216Z,1019.50
2023-04-20T05:58:32.198Z,1019.50
2023-04-20T05:59:03.021Z,1019.50
2023-04-20T05:59:34.056Z,1019.50
2023-04-20T06:00:07.068Z,1019.50
2023-04-20T06:00:35.249Z,1019.61
2023-04-20T06:01:06.053Z,1019.61
2023-04-20T06:01:55.340Z,1019.71
2023-04-20T06:02:08.205Z,1019.71
2023-04-20T06:02:38.697Z,1019.61
2023-04-20T06:03:11.766Z,1019.61
2023-04-20T06:04:07.277Z,1019.61
2023-04-20T06:04:13.109Z,1019.61
2023-04-20T06:05:02.279Z,1019.81
2023-04-20T06:05:14.743Z,1019.81
2023-04-20T06:05:45.463Z,1019.50
2023-04-20T06:06:16.862Z,1019.50
2023-04-20T06:07:05.741Z,1019.81
2023-04-20T06:07:20.018Z,1019.81
2023-04-20T06:07:54.870Z,1019.71
2023-04-20T06:08:22.415Z,1019.71
2023-04-20T06:08:52.794Z,1019.50
2023-04-20T06:09:23.479Z,1019.50
2023-04-20T06:09:56.390Z,1019.61
2023-04-20T06:10:25.654Z,1019.61
2023-04-20T06:10:55.293Z,1019.81
2023-04-20T06:11:26.750Z,1019.81
2023-04-20T06:11:57.990Z,1019.71
2023-04-20T06:12:31.021Z,1019.71
2023-04-20T06:13:01.372Z,1019.71
2023-04-20T06:13:32.626Z,1019.71
2023-04-20T06:14:02.779Z,1019.61
2023-04-20T06:14:33.374Z,1019.50
2023-04-20T06:15:04.376Z,1019.50
2023-04-20T06:15:34.093Z,1019.71
2023-04-20T06:16:06.260Z,1019.71
2023-04-20T06:16:36.162Z,1019.71
2023-04-20T06:17:11.902Z,1019.71
2023-04-20T06:17:39.337Z,1019.81
2023-04-20T06:18:12.658Z,1019.81
2023-04-20T06:18:41.980Z,1019.81
2023-04-20T06:19:12.603Z,1019.81
2023-04-20T06:19:43.507Z,1020.01
2023-04-20T06:20:14.495Z,1020.01
2023-04-20T06:20:44.513Z,1019.91
2023-04-20T06:21:15.660Z,1019.91
2023-04-20T06:21:46.254Z,1019.81
2023-04-20T06:22:18.379Z,1019.81
2023-04-20T06:22:49.623Z,1019.81
2023-04-20T06:23:36.816Z,1019.71
2023-04-20T06:23:52.213Z,1019.71
2023-04-20T06:24:22.579Z,1019.71
2023-04-20T06:24:53.210Z,1019.81
2023-04-20T06:25:24.243Z,1019.81
2023-04-20T06:25:54.739Z,1019.81
2023-04-20T06:26:26.500Z,1019.81
2023-04-20T06:27:01.152Z,1019.71
2023-04-20T06:27:28.292Z,1019.71
2023-04-20T06:28:01.282Z,1019.81
2023-04-20T06:28:31.840Z,1019.81
2023-04-20T06:29:01.903Z,1019.71
2023-04-20T06:29:32.474Z,1019.71
2023-04-20T06:30:34.987Z,1019.71
2023-04-20T06:31:05.003Z,1019.71
2023-04-20T06:31:35.646Z,1019.91
2023-04-20T06:32:24.936Z,1019.91
2023-04-20T06:32:37.227Z,1019.81
2023-04-20T06:33:12.366Z,1019.81
2023-04-20T06:33:42.107Z,1019.71
2023-04-20T06:34:13.091Z,1019.71
2023-04-20T06:34:43.394Z,1019.81
2023-04-20T06:35:13.604Z,1019.81
2023-04-20T06:35:44.317Z,1019.81
2023-04-20T06:36:14.930Z,1019.81
2023-04-20T06:36:45.845Z,1019.71